Latest Coastal Weather Observations for Sydney Harbour

IDN60701

Issued at 12:01 am EST Friday 23 August 2019 (issued every 10 minutes, with the page automatically refreshed every 10 minutes)

About coastal observations | Map of coastal stations | Coastal observations for NSW | Marine services | Other Formats
Station Details ID: 066196 Name: WEDDING CAKE WEST Lat: -33.84 Lon: 151.26 Height: 6.0 m
Data from the previous 72 hours. | See also: Recent months at Sydney Harbour
Date/Time
EST
Wind Sea
Height
m
Swell Vis
km
Cloud Weather Temp
°C
Press
hPa
Rain since
9am
mm
Dir  Spd
kts
Gust
kts
Height
m
Period
s
Dir
23/12:00am SSW 15 16 - - - - - - - 13.1 - -
 
Date/Time
EST
Wind Sea
Height
m
Swell Vis
km
Cloud Weather Temp
°C
Press
hPa
Rain since
9am
mm
Dir  Spd
kts
Gust
kts
Height
m
Period
s
Dir
22/11:35pm SSW 17 27 - - - - - - - 14.0 - -
22/11:30pm SSW 19 27 - - - - - - - 13.9 - -
22/11:00pm SSW 17 21 - - - - - - - 14.0 - -
22/10:30pm SSW 19 23 - - - - - - - 14.2 - -
22/10:00pm SSW 20 26 - - - - - - - 14.2 - -
22/09:30pm SSW 19 29 - - - - - - - 14.4 - -
22/09:00pm SSW 21 28 - - - - - - - 14.5 - -
22/08:30pm SSW 19 29 - - - - - - - 14.6 - -
22/08:23pm SSW 18 29 - - - - - - - 14.6 - -
22/08:00pm SSW 21 30 - - - - - - - 14.8 - -
22/07:59pm SSW 20 30 - - - - - - - 14.7 - -
22/07:30pm SSW 22 27 - - - - - - - 14.7 - -
22/07:00pm S 20 27 - - - - - - - 14.7 - -
22/06:45pm S 22 32 - - - - - - - 14.7 - -
22/06:30pm S 24 31 - - - - - - - 14.6 - -
22/06:00pm S 26 34 - - - - - - - 14.8 - -
22/05:30pm S 25 35 - - - - - - - 14.7 - -
22/05:00pm S 27 37 - - - - - - - 14.6 - -
22/04:53pm S 26 37 - - - - - - - 14.7 - -
22/04:30pm S 28 37 - - - - - - - 14.6 - -
22/04:02pm S 27 37 - - - - - - - 14.7 - -
22/04:00pm S 26 35 - - - - - - - 14.6 - -
22/03:32pm S 29 39 - - - - - - - 14.6 - -
22/03:30pm S 30 39 - - - - - - - 14.6 - -
22/03:09pm S 25 37 - - - - - - - 14.7 - -
22/03:00pm S 26 35 - - - - - - - 14.9 - -
22/02:34pm S 25 35 - - - - - - - 14.9 - -
22/02:30pm S 27 35 - - - - - - - 14.8 - -
22/02:00pm S 28 37 - - - - - - - 14.8 - -
22/01:52pm S 26 37 - - - - - - - 14.9 - -
22/01:30pm S 25 32 - - - - - - - 14.8 - -
22/01:00pm S 28 35 - - - - - - - 15.1 - -
22/12:36pm S 21 31 - - - - - - - 15.1 - -
22/12:30pm S 22 30 - - - - - - - 15.1 - -
22/12:22pm S 21 31 - - - - - - - 14.8 - -
22/12:00pm S 21 28 - - - - - - - 15.1 - -
22/11:30am SSE 22 30 - - - - - - - 14.9 - -
22/11:22am SSW 22 32 - - - - - - - 15.3 - -
22/11:21am SW 23 32 - - - - - - - 15.7 - -
22/11:00am SW 21 27 - - - - - - - 17.8 - -
22/10:33am SW 22 36 - - - - - - - 17.4 - -
22/10:30am SW 21 29 - - - - - - - 17.5 - -
22/10:01am WSW 19 29 - - - - - - - 17.1 - -
22/10:00am WSW 20 29 - - - - - - - 17.0 - -
22/09:30am WSW 20 30 - - - - - - - 16.7 - -
22/09:00am WSW 21 33 - - - - - - - 16.3 - -
22/08:30am WSW 22 33 - - - - - - - 16.3 - -
22/08:00am W 21 33 - - - - - - - 16.1 - -
22/07:30am W 22 33 - - - - - - - 15.9 - -
22/07:27am W 21 33 - - - - - - - 15.9 - -
22/07:00am W 21 29 - - - - - - - 15.6 - -
22/06:53am W 19 29 - - - - - - - 15.7 - -
22/06:41am W 14 25 - - - - - - - 15.5 - -
22/06:30am W 7 10 - - - - - - - 15.2 - -
22/06:00am W 6 9 - - - - - - - 14.7 - -
22/05:30am WSW 7 8 - - - - - - - 14.5 - -
22/05:00am NNW 2 3 - - - - - - - 13.6 - -
22/04:30am NNW 2 4 - - - - - - - 13.8 - -
22/04:00am W 3 5 - - - - - - - 14.2 - -
22/03:30am CALM 0 0 - - - - - - - 14.4 - -
22/03:00am NNW 7 8 - - - - - - - 14.3 - -
22/02:30am NNW 9 13 - - - - - - - 14.3 - -
22/02:00am NNW 9 12 - - - - - - - 14.8 - -
22/01:30am NW 9 12 - - - - - - - 15.4 - -
22/01:00am NW 7 10 - - - - - - - 15.2 - -
22/12:30am W 12 18 - - - - - - - 16.4 - -
22/12:08am W 18 28 - - - - - - - 16.7 - -
22/12:00am W 21 29 - - - - - - - 16.9 - -
 
Date/Time
EST
Wind Sea
Height
m
Swell Vis
km
Cloud Weather Temp
°C
Press
hPa
Rain since
9am
mm
Dir  Spd
kts
Gust
kts
Height
m
Period
s
Dir
21/11:53pm WSW 14 26 - - - - - - - 16.9 - -
21/11:30pm W 16 21 - - - - - - - 16.5 - -
21/11:00pm W 17 22 - - - - - - - 16.5 - -
21/10:30pm W 17 23 - - - - - - - 16.8 - -
21/10:00pm W 20 28 - - - - - - - 17.0 - -
21/09:47pm W 19 29 - - - - - - - 16.9 - -
21/09:30pm W 20 27 - - - - - - - 17.0 - -
21/09:00pm WSW 20 28 - - - - - - - 17.2 - -
21/08:30pm WSW 18 26 - - - - - - - 17.3 - -
21/08:00pm W 19 23 - - - - - - - 17.5 - -
21/07:30pm W 15 21 - - - - - - - 17.6 - -
21/07:00pm WSW 17 24 - - - - - - - 18.0 - -
21/06:30pm WSW 15 23 - - - - - - - 18.2 - -
21/06:04pm WSW 19 29 - - - - - - - 18.6 - -
21/06:00pm WSW 21 30 - - - - - - - 18.7 - -
21/05:51pm WSW 17 28 - - - - - - - 18.8 - -
21/05:30pm WSW 21 29 - - - - - - - 19.1 - -
21/05:23pm WSW 19 29 - - - - - - - 19.3 - -
21/05:00pm WSW 19 27 - - - - - - - 19.3 - -
21/04:35pm WSW 18 28 - - - - - - - 19.7 - -
21/04:30pm WSW 20 27 - - - - - - - 19.7 - -
21/04:00pm W 23 33 - - - - - - - 20.0 - -
21/03:39pm WSW 22 32 - - - - - - - 19.9 - -
21/03:30pm WSW 23 32 - - - - - - - 19.8 - -
21/03:00pm WSW 21 27 - - - - - - - 19.8 - -
21/02:30pm WSW 25 36 - - - - - - - 19.5 - -
21/02:00pm WSW 23 34 - - - - - - - 19.5 - -
21/01:32pm WSW 18 29 - - - - - - - 19.7 - -
21/01:30pm WSW 18 24 - - - - - - - 19.8 - -
21/01:00pm WSW 11 17 - - - - - - - 19.7 - -
21/12:30pm W 11 16 - - - - - - - 19.1 - -
21/12:00pm W 12 19 - - - - - - - 18.7 - -
21/11:30am W 12 22 - - - - - - - 17.8 - -
21/11:00am W 7 12 - - - - - - - 17.2 - -
21/10:30am W 12 20 - - - - - - - 16.8 - -
21/10:00am WNW 9 14 - - - - - - - 16.1 - -
21/09:30am WNW 11 17 - - - - - - - 15.7 - -
21/09:00am WNW 13 19 - - - - - - - 15.6 - -
21/08:30am W 15 23 - - - - - - - 15.1 - -
21/08:00am W 17 23 - - - - - - - 14.5 - -
21/07:30am W 18 23 - - - - - - - 14.3 - -
21/07:00am W 17 23 - - - - - - - 13.9 - -
21/06:30am WSW 12 17 - - - - - - - 13.8 - -
21/06:17am W 15 22 - - - - - - - 13.9 - -
21/06:00am WSW 6 7 - - - - - - - 12.1 - -
21/05:30am WNW 6 11 - - - - - - - 12.2 - -
21/05:00am N 5 6 - - - - - - - 11.1 - -
21/04:30am NNW 4 6 - - - - - - - 11.5 - -
21/04:00am NW 9 12 - - - - - - - 11.9 - -
21/03:30am NNW 11 14 - - - - - - - 11.7 - -
21/03:00am NW 5 9 - - - - - - - 11.1 - -
21/02:30am NW 6 8 - - - - - - - 11.1 - -
21/02:00am NW 5 7 - - - - - - - 11.4 - -
21/01:30am NNW 5 8 - - - - - - - 11.6 - -
21/01:00am NW 6 8 - - - - - - - 12.2 - -
21/12:30am N 6 8 - - - - - - - 11.8 - -
21/12:00am NW 5 8 - - - - - - - 12.5 - -
 
Date/Time
EST
Wind Sea
Height
m
Swell Vis
km
Cloud Weather Temp
°C
Press
hPa
Rain since
9am
mm
Dir  Spd
kts
Gust
kts
Height
m
Period
s
Dir
20/11:30pm W 11 15 - - - - - - - 13.1 - -
20/11:00pm WNW 7 11 - - - - - - - 13.3 - -
20/10:30pm W 11 14 - - - - - - - 13.4 - -
20/10:00pm W 10 13 - - - - - - - 13.7 - -
20/09:30pm W 8 14 - - - - - - - 13.9 - -
20/09:00pm W 10 15 - - - - - - - 14.1 - -
20/08:30pm W 13 17 - - - - - - - 14.5 - -
20/08:07pm WSW 17 27 - - - - - - - 14.8 - -
20/08:00pm WSW 18 25 - - - - - - - 14.9 - -
20/07:30pm WSW 18 28 - - - - - - - 15.2 - -
20/07:05pm WSW 15 25 - - - - - - - 15.7 - -
20/07:00pm WSW 15 20 - - - - - - - 15.7 - -
20/06:30pm WSW 16 25 - - - - - - - 16.7 - -
20/06:13pm WSW 19 30 - - - - - - - 17.2 - -
20/06:00pm WSW 18 25 - - - - - - - 17.4 - -
20/05:33pm WSW 16 26 - - - - - - - 18.1 - -
20/05:30pm WSW 16 22 - - - - - - - 18.1 - -
20/05:00pm WSW 16 21 - - - - - - - 18.5 - -
20/04:30pm W 14 21 - - - - - - - 18.9 - -
20/04:00pm WSW 15 22 - - - - - - - 18.8 - -
20/03:30pm WSW 18 24 - - - - - - - 19.0 - -
20/03:00pm WSW 17 23 - - - - - - - 19.2 - -
20/02:30pm SW 15 20 - - - - - - - 19.1 - -
20/02:00pm WSW 15 20 - - - - - - - 18.9 - -
20/01:30pm WSW 14 22 - - - - - - - 18.6 - -
20/01:00pm WSW 14 19 - - - - - - - 17.9 - -
20/12:30pm WSW 14 19 - - - - - - - 17.4 - -
20/12:00pm W 13 17 - - - - - - - 16.6 - -
20/11:30am W 14 20 - - - - - - - 15.5 - -
20/11:00am W 15 19 - - - - - - - 14.5 - -
20/10:30am W 16 21 - - - - - - - 13.7 - -
20/10:00am W 17 24 - - - - - - - 12.9 - -
20/09:30am W 17 23 - - - - - - - 12.3 - -
20/09:00am WSW 15 21 - - - - - - - 11.8 - -
20/08:30am WSW 13 19 - - - - - - - 11.1 - -
20/08:00am W 16 22 - - - - - - - 10.8 - -
20/07:30am W 17 23 - - - - - - - 10.8 - -
20/07:00am W 16 21 - - - - - - - 10.4 - -
20/06:30am W 13 17 - - - - - - - 10.4 - -
20/06:00am WSW 11 16 - - - - - - - 10.1 - -
20/05:30am W 9 12 - - - - - - - 9.9 - -
20/05:00am W 15 20 - - - - - - - 10.1 - -
20/04:30am W 17 23 - - - - - - - 10.1 - -
20/04:00am W 14 19 - - - - - - - 10.2 - -
20/03:30am W 13 16 - - - - - - - 9.9 - -
20/03:00am W 13 20 - - - - - - - 10.2 - -
20/02:30am W 17 21 - - - - - - - 10.4 - -
20/02:00am W 16 21 - - - - - - - 10.4 - -
20/01:30am W 16 23 - - - - - - - 10.5 - -
20/01:00am W 19 25 - - - - - - - 10.7 - -
20/12:30am W 17 22 - - - - - - - 10.6 - -

Other formats

Comma delimited format used in spreadsheet applications
http://www.bom.gov.au/fwo/IDN60701/IDN60701.95766.axf

JavaScript Object Notation format (JSON) in row-major order
http://www.bom.gov.au/fwo/IDN60701/IDN60701.95766.json

Data quality

Most of these data are generated automatically and are frequently updated. Quality checks on data are not normally performed. It is possible for incorrect values to appear. Refer to information at About Latest Weather Observations and please check the disclaimer before using these data.